createdAt,value
2017-08-22T00:00:32.326Z,11.40
2017-08-22T00:02:59.692Z,11.40
2017-08-22T00:05:26.827Z,11.40
2017-08-22T00:07:53.217Z,11.40
2017-08-22T00:10:19.698Z,11.40
2017-08-22T00:12:46.093Z,11.40
2017-08-22T00:15:13.363Z,11.40
2017-08-22T00:17:39.808Z,11.40
2017-08-22T00:20:07.254Z,11.40
2017-08-22T00:22:34.818Z,11.30
2017-08-22T00:25:01.962Z,11.30
2017-08-22T00:27:28.403Z,11.30
2017-08-22T00:29:54.760Z,11.40
2017-08-22T00:32:21.280Z,11.40
2017-08-22T00:34:47.824Z,11.30
2017-08-22T00:37:14.564Z,11.30
2017-08-22T00:39:40.972Z,11.30
2017-08-22T00:42:07.369Z,11.30
2017-08-22T00:44:33.787Z,11.30
2017-08-22T00:47:00.204Z,11.20
2017-08-22T00:49:26.629Z,11.20
2017-08-22T00:51:53.110Z,11.10
2017-08-22T00:54:19.652Z,11.10
2017-08-22T00:56:46.056Z,11.00
2017-08-22T00:59:12.508Z,11.00
2017-08-22T01:01:38.869Z,11.00
2017-08-22T01:04:05.618Z,11.00
2017-08-22T01:06:32.156Z,10.90
2017-08-22T01:08:59.001Z,10.90
2017-08-22T01:11:25.452Z,10.90
2017-08-22T01:13:51.977Z,10.90
2017-08-22T01:16:18.435Z,10.90
2017-08-22T01:18:44.925Z,10.90
2017-08-22T01:21:11.345Z,10.90
2017-08-22T01:23:37.721Z,10.90
2017-08-22T01:26:04.222Z,10.80
2017-08-22T01:28:30.648Z,10.80
2017-08-22T01:30:57.455Z,10.80
2017-08-22T01:33:23.854Z,10.70
2017-08-22T01:35:51.457Z,10.80
2017-08-22T01:38:18.127Z,10.80
2017-08-22T01:40:44.502Z,10.70
2017-08-22T01:43:10.937Z,10.70
2017-08-22T01:45:37.388Z,10.70
2017-08-22T01:48:03.772Z,10.60
2017-08-22T01:50:48.446Z,10.60
2017-08-22T01:53:14.842Z,10.60
2017-08-22T01:55:41.193Z,10.60
2017-08-22T01:58:07.591Z,10.50
2017-08-22T02:00:33.966Z,10.50
2017-08-22T02:03:00.405Z,10.50
2017-08-22T02:05:26.786Z,10.50
2017-08-22T02:07:53.161Z,10.50
2017-08-22T02:10:19.579Z,10.50
2017-08-22T02:12:46.004Z,10.50
2017-08-22T02:15:12.410Z,10.50
2017-08-22T02:17:38.851Z,10.50
2017-08-22T02:20:05.560Z,10.60
2017-08-22T02:22:31.951Z,10.60
2017-08-22T02:24:58.385Z,10.60
2017-08-22T02:27:24.735Z,10.60
2017-08-22T02:29:51.140Z,10.60
2017-08-22T02:32:17.572Z,10.60
2017-08-22T02:34:44.100Z,10.60
2017-08-22T02:37:10.594Z,10.60
2017-08-22T02:39:36.986Z,10.60
2017-08-22T02:42:03.746Z,10.60
2017-08-22T02:44:30.170Z,10.60
2017-08-22T02:46:56.924Z,10.60
2017-08-22T02:49:23.922Z,10.60
2017-08-22T02:51:50.284Z,10.50
2017-08-22T02:54:16.711Z,10.50
2017-08-22T02:56:43.059Z,10.50
2017-08-22T02:59:10.263Z,10.50
2017-08-22T03:01:36.694Z,10.50
2017-08-22T03:04:03.061Z,10.50
2017-08-22T03:06:29.496Z,10.50
2017-08-22T03:08:55.878Z,10.50
2017-08-22T03:11:22.255Z,10.50
2017-08-22T03:13:48.994Z,10.50
2017-08-22T03:16:15.329Z,10.50
2017-08-22T03:18:41.704Z,10.50
2017-08-22T03:21:08.162Z,10.50
2017-08-22T03:23:34.464Z,10.50
2017-08-22T03:26:00.852Z,10.50
2017-08-22T03:28:27.239Z,10.50
2017-08-22T03:30:53.675Z,10.50
2017-08-22T03:33:20.044Z,10.40
2017-08-22T03:35:47.225Z,10.40
2017-08-22T03:38:13.633Z,10.40
2017-08-22T03:40:40.474Z,10.40
2017-08-22T03:43:06.847Z,10.40
2017-08-22T03:45:33.241Z,10.40
2017-08-22T03:47:59.706Z,10.40
2017-08-22T03:50:26.077Z,10.30
2017-08-22T03:52:52.533Z,10.30
2017-08-22T03:55:18.972Z,10.20
2017-08-22T03:57:45.437Z,10.20
2017-08-22T04:00:11.839Z,10.20
2017-08-22T04:02:40.242Z,10.10
2017-08-22T04:05:06.601Z,10.10
2017-08-22T04:07:33.002Z,10.10
2017-08-22T04:09:59.404Z,10.00
2017-08-22T04:12:25.846Z,10.00
2017-08-22T04:14:52.283Z,10.00
2017-08-22T04:17:18.646Z,9.90
2017-08-22T04:19:45.399Z,9.90
2017-08-22T04:22:11.777Z,10.30
2017-08-22T04:24:38.528Z,10.80
2017-08-22T04:27:06.024Z,11.00
2017-08-22T04:29:32.572Z,11.10
2017-08-22T04:31:58.939Z,11.10
2017-08-22T04:34:30.288Z,11.20
2017-08-22T04:36:58.409Z,11.30
2017-08-22T04:39:24.970Z,11.60
2017-08-22T04:41:52.481Z,12.00
2017-08-22T04:44:21.295Z,12.30
2017-08-22T04:46:49.312Z,12.50
2017-08-22T04:49:15.803Z,12.70
2017-08-22T04:51:42.544Z,12.80
2017-08-22T04:54:08.963Z,13.00
2017-08-22T04:56:35.333Z,13.00
2017-08-22T04:59:01.730Z,13.10
2017-08-22T05:01:28.982Z,13.20
2017-08-22T05:03:55.565Z,13.20
2017-08-22T05:06:23.360Z,13.30
2017-08-22T05:08:49.866Z,13.30
2017-08-22T05:11:17.580Z,13.40
2017-08-22T05:13:44.119Z,13.50
2017-08-22T05:16:12.031Z,13.50
2017-08-22T05:18:38.577Z,13.60
2017-08-22T05:21:04.938Z,13.60
2017-08-22T05:23:31.517Z,13.70
2017-08-22T05:25:57.923Z,13.70
2017-08-22T05:28:24.310Z,13.70
2017-08-22T05:30:51.157Z,13.80
2017-08-22T05:33:17.533Z,13.90
2017-08-22T05:35:43.959Z,13.90
2017-08-22T05:38:10.422Z,13.90
2017-08-22T05:40:36.793Z,13.90
2017-08-22T05:43:03.205Z,13.90
2017-08-22T05:45:29.634Z,13.80
2017-08-22T05:47:56.075Z,13.50
2017-08-22T05:50:22.461Z,13.20
2017-08-22T05:52:48.839Z,13.00
2017-08-22T05:55:15.379Z,12.90
2017-08-22T05:57:41.794Z,12.80
2017-08-22T06:00:08.150Z,12.70
2017-08-22T06:02:34.607Z,12.70
2017-08-22T06:05:01.064Z,12.60
2017-08-22T06:07:27.429Z,12.70
2017-08-22T06:09:55.236Z,12.70
2017-08-22T06:12:21.753Z,12.70
2017-08-22T06:14:48.207Z,12.70
2017-08-22T06:17:14.591Z,12.70
2017-08-22T06:19:41.590Z,12.70
2017-08-22T06:22:08.738Z,12.80
2017-08-22T06:24:37.118Z,12.90
2017-08-22T06:27:04.011Z,12.90
2017-08-22T06:29:30.369Z,13.00
2017-08-22T06:31:56.766Z,13.00
2017-08-22T06:34:25.366Z,13.10
2017-08-22T06:36:51.796Z,13.10
2017-08-22T06:39:18.190Z,13.10
2017-08-22T06:41:44.645Z,13.20
2017-08-22T06:44:11.220Z,13.20
2017-08-22T06:46:37.950Z,13.20
2017-08-22T06:49:04.334Z,13.20
2017-08-22T06:54:31.019Z,13.40
2017-08-22T06:56:57.415Z,13.50
2017-08-22T06:59:23.827Z,13.60
2017-08-22T07:01:50.186Z,13.60
2017-08-22T07:04:16.568Z,13.60
2017-08-22T07:06:42.977Z,13.70
2017-08-22T07:09:09.368Z,13.60
2017-08-22T07:11:35.735Z,13.70
2017-08-22T07:14:02.106Z,13.80
2017-08-22T07:16:28.544Z,14.00
2017-08-22T07:18:54.982Z,14.20
2017-08-22T07:21:21.349Z,14.30
2017-08-22T07:23:47.744Z,14.50
2017-08-22T07:26:14.174Z,14.60
2017-08-22T07:28:40.558Z,14.60
2017-08-22T07:31:06.991Z,14.70
2017-08-22T07:33:33.365Z,14.80
2017-08-22T07:35:59.830Z,14.90
2017-08-22T07:38:26.235Z,14.90
2017-08-22T07:40:52.597Z,15.00
2017-08-22T07:43:19.001Z,15.00
2017-08-22T07:45:45.362Z,15.10
2017-08-22T07:48:11.756Z,15.20
2017-08-22T07:50:38.467Z,15.30
2017-08-22T07:53:04.886Z,15.40
2017-08-22T07:55:31.355Z,15.40
2017-08-22T07:57:57.741Z,15.50
2017-08-22T08:00:24.100Z,15.60
2017-08-22T08:02:50.537Z,15.70
2017-08-22T08:05:16.986Z,15.80
2017-08-22T08:07:43.649Z,15.90
2017-08-22T08:10:10.176Z,16.00
2017-08-22T08:12:36.670Z,16.10
2017-08-22T08:15:03.129Z,16.20
2017-08-22T08:20:06.032Z,16.40
2017-08-22T08:22:32.893Z,16.60
2017-08-22T08:24:59.572Z,16.60
2017-08-22T08:27:25.923Z,16.70
2017-08-22T08:29:52.351Z,16.80
2017-08-22T08:32:18.780Z,16.90
2017-08-22T08:34:45.298Z,17.00
2017-08-22T08:37:12.415Z,17.00
2017-08-22T08:39:39.456Z,17.10
2017-08-22T08:42:05.842Z,17.10
2017-08-22T08:44:33.025Z,17.20
2017-08-22T08:46:59.414Z,17.20
2017-08-22T08:49:26.957Z,17.50
2017-08-22T08:51:54.061Z,17.50
2017-08-22T08:54:20.445Z,17.60
2017-08-22T08:56:46.937Z,17.70
2017-08-22T08:59:13.303Z,17.80
2017-08-22T09:01:39.657Z,17.90
2017-08-22T09:04:06.035Z,18.00
2017-08-22T09:06:32.454Z,18.10
2017-08-22T09:08:58.826Z,18.20
2017-08-22T09:11:25.232Z,18.20
2017-08-22T09:13:51.617Z,18.30
2017-08-22T09:16:18.425Z,18.40
2017-08-22T09:18:44.794Z,18.40
2017-08-22T09:21:11.204Z,18.50
2017-08-22T09:23:37.692Z,18.60
2017-08-22T09:26:04.082Z,18.70
2017-08-22T09:28:30.563Z,18.90
2017-08-22T09:30:57.005Z,19.00
2017-08-22T09:33:23.386Z,19.10
2017-08-22T09:35:49.971Z,19.20
2017-08-22T09:38:16.359Z,19.20
2017-08-22T09:40:42.687Z,19.30
2017-08-22T09:43:09.436Z,19.40
2017-08-22T09:45:35.790Z,19.50
2017-08-22T09:48:02.209Z,19.50
2017-08-22T09:50:28.631Z,19.60
2017-08-22T09:52:55.041Z,19.70
2017-08-22T09:55:23.036Z,19.80
2017-08-22T09:57:49.438Z,19.90
2017-08-22T10:00:15.884Z,20.00
2017-08-22T10:02:42.253Z,20.00
2017-08-22T10:05:08.625Z,20.10
2017-08-22T10:07:35.056Z,20.30
2017-08-22T10:10:01.457Z,20.50
2017-08-22T10:12:27.908Z,20.60
2017-08-22T10:14:54.812Z,20.80
2017-08-22T10:17:22.856Z,21.00
2017-08-22T10:19:49.290Z,21.20
2017-08-22T10:22:15.768Z,21.40
2017-08-22T10:24:42.286Z,21.60
2017-08-22T10:27:08.859Z,21.90
2017-08-22T10:29:35.353Z,22.30
2017-08-22T10:32:02.228Z,22.60
2017-08-22T10:34:28.590Z,23.00
2017-08-22T10:36:54.973Z,23.30
2017-08-22T10:39:21.357Z,23.60
2017-08-22T10:41:47.786Z,23.90
2017-08-22T10:44:14.186Z,24.10
2017-08-22T10:46:40.559Z,24.40
2017-08-22T10:49:06.959Z,24.60
2017-08-22T10:51:33.327Z,24.70
2017-08-22T10:53:59.715Z,24.80
2017-08-22T10:56:26.107Z,25.00
2017-08-22T10:58:52.488Z,25.10
2017-08-22T11:01:18.901Z,25.20
2017-08-22T11:03:45.351Z,25.50
2017-08-22T11:06:11.731Z,25.70
2017-08-22T11:08:38.897Z,26.00
2017-08-22T11:11:05.269Z,25.90
2017-08-22T11:13:31.628Z,26.10
2017-08-22T11:15:58.023Z,26.20
2017-08-22T11:18:24.403Z,26.20
2017-08-22T11:20:50.797Z,26.30
2017-08-22T11:23:17.129Z,26.40
2017-08-22T11:25:43.515Z,26.50
2017-08-22T11:28:09.944Z,26.70
2017-08-22T11:30:36.334Z,26.80
2017-08-22T11:33:02.767Z,26.90
2017-08-22T11:35:29.112Z,26.90
2017-08-22T11:37:55.522Z,26.80
2017-08-22T11:40:21.864Z,26.80
2017-08-22T11:42:48.218Z,26.90
2017-08-22T11:45:14.661Z,27.00
2017-08-22T11:47:41.323Z,27.20
2017-08-22T11:50:07.751Z,27.30
2017-08-22T11:52:34.179Z,27.30
2017-08-22T11:55:00.624Z,27.20
2017-08-22T11:57:27.767Z,26.90
2017-08-22T11:59:54.236Z,26.70
2017-08-22T12:02:20.632Z,26.90
2017-08-22T12:04:47.016Z,27.10
2017-08-22T12:07:13.390Z,27.40
2017-08-22T12:09:39.788Z,27.40
2017-08-22T12:12:06.211Z,27.40
2017-08-22T12:14:32.602Z,27.40
2017-08-22T12:16:59.019Z,27.50
2017-08-22T12:19:25.501Z,27.60
2017-08-22T12:21:52.216Z,27.70
2017-08-22T12:24:18.618Z,28.00
2017-08-22T12:26:45.013Z,28.20
2017-08-22T12:29:11.361Z,28.30
2017-08-22T12:31:37.782Z,28.20
2017-08-22T12:34:04.201Z,28.10
2017-08-22T12:36:30.610Z,27.90
2017-08-22T12:38:56.992Z,27.90
2017-08-22T12:41:23.371Z,27.90
2017-08-22T12:43:50.193Z,27.90
2017-08-22T12:46:17.308Z,27.80
2017-08-22T12:48:44.454Z,27.80
2017-08-22T12:51:11.610Z,27.70
2017-08-22T12:53:38.753Z,27.90
2017-08-22T12:56:05.193Z,28.30
2017-08-22T12:58:31.574Z,28.50
2017-08-22T13:00:57.970Z,28.70
2017-08-22T13:03:24.354Z,28.80
2017-08-22T13:05:50.733Z,28.90
2017-08-22T13:08:17.111Z,28.90
2017-08-22T13:10:43.769Z,28.80
2017-08-22T13:13:10.129Z,28.90
2017-08-22T13:15:36.485Z,29.00
2017-08-22T13:18:02.865Z,28.90
2017-08-22T13:20:29.282Z,28.90
2017-08-22T13:22:56.539Z,29.00
2017-08-22T13:25:22.929Z,29.10
2017-08-22T13:27:50.120Z,29.00
2017-08-22T13:30:16.580Z,28.90
2017-08-22T13:32:42.983Z,29.00
2017-08-22T13:35:09.356Z,29.10
2017-08-22T13:37:35.764Z,29.20
2017-08-22T13:40:05.661Z,29.20
2017-08-22T13:42:33.003Z,29.20
2017-08-22T13:44:59.393Z,29.20
2017-08-22T13:47:26.003Z,29.20
2017-08-22T13:49:52.453Z,29.30
2017-08-22T13:52:18.835Z,29.40
2017-08-22T13:54:45.204Z,29.40
2017-08-22T13:57:58.920Z,29.10
2017-08-22T14:00:25.410Z,29.00
2017-08-22T14:02:51.862Z,28.90
2017-08-22T14:05:18.331Z,28.80
2017-08-22T14:07:44.751Z,28.90
2017-08-22T14:10:11.087Z,29.10
2017-08-22T14:12:37.446Z,29.20
2017-08-22T14:15:04.284Z,29.30
2017-08-22T14:17:30.630Z,29.40
2017-08-22T14:19:57.702Z,29.50
2017-08-22T14:22:24.759Z,29.50
2017-08-22T14:24:51.902Z,29.50
2017-08-22T14:27:18.356Z,29.30
2017-08-22T14:29:44.736Z,29.10
2017-08-22T14:32:11.116Z,29.20
2017-08-22T14:34:37.499Z,29.30
2017-08-22T14:37:03.903Z,29.30
2017-08-22T14:39:30.272Z,29.30
2017-08-22T14:41:57.429Z,29.30
2017-08-22T14:44:23.841Z,29.30
2017-08-22T14:46:50.525Z,29.20
2017-08-22T14:49:16.885Z,29.00
2017-08-22T14:51:43.255Z,28.80
2017-08-22T14:54:09.653Z,28.60
2017-08-22T14:56:36.022Z,28.40
2017-08-22T14:59:02.430Z,28.00
2017-08-22T15:01:28.833Z,27.60
2017-08-22T15:03:55.209Z,27.10
2017-08-22T15:06:21.599Z,26.70
2017-08-22T15:08:48.151Z,26.30
2017-08-22T15:11:14.513Z,26.00
2017-08-22T15:13:41.289Z,25.80
2017-08-22T15:16:07.716Z,25.70
2017-08-22T15:18:34.921Z,25.60
2017-08-22T15:21:02.172Z,25.40
2017-08-22T15:23:29.662Z,24.90
2017-08-22T15:25:56.070Z,24.80
2017-08-22T15:28:23.210Z,24.70
2017-08-22T15:30:49.625Z,24.50
2017-08-22T15:33:16.013Z,24.40
2017-08-22T15:35:43.462Z,24.10
2017-08-22T15:38:09.832Z,24.00
2017-08-22T15:40:36.195Z,24.00
2017-08-22T15:43:02.615Z,23.90
2017-08-22T15:45:28.994Z,23.80
2017-08-22T15:47:55.406Z,23.80
2017-08-22T15:50:21.824Z,23.80
2017-08-22T15:52:48.239Z,23.90
2017-08-22T15:55:14.641Z,23.80
2017-08-22T15:57:41.056Z,23.90
2017-08-22T16:00:07.447Z,24.00
2017-08-22T16:02:34.198Z,24.10
2017-08-22T16:05:00.606Z,24.10
2017-08-22T16:07:26.997Z,24.20
2017-08-22T16:09:53.506Z,24.20
2017-08-22T16:12:20.070Z,24.20
2017-08-22T16:14:46.598Z,23.90
2017-08-22T16:17:13.194Z,23.70
2017-08-22T16:19:39.719Z,23.50
2017-08-22T16:22:06.179Z,23.40
2017-08-22T16:24:34.972Z,23.20
2017-08-22T16:27:02.240Z,23.10
2017-08-22T16:29:28.619Z,23.00
2017-08-22T16:31:55.104Z,22.90
2017-08-22T16:34:21.937Z,22.90
2017-08-22T16:36:48.400Z,22.80
2017-08-22T16:39:15.102Z,22.70
2017-08-22T16:41:41.696Z,22.60
2017-08-22T16:44:08.129Z,22.50
2017-08-22T16:46:34.646Z,22.40
2017-08-22T16:49:01.178Z,22.40
2017-08-22T16:51:27.693Z,22.30
2017-08-22T16:53:54.220Z,22.30
2017-08-22T16:56:20.826Z,22.20
2017-08-22T16:58:47.302Z,22.20
2017-08-22T17:01:14.113Z,22.10
2017-08-22T17:03:40.587Z,22.00
2017-08-22T17:06:07.343Z,21.80
2017-08-22T17:08:33.774Z,21.70
2017-08-22T17:11:00.219Z,21.70
2017-08-22T17:13:26.713Z,21.60
2017-08-22T17:15:53.284Z,21.50
2017-08-22T17:18:19.711Z,21.40
2017-08-22T17:20:46.187Z,21.30
2017-08-22T17:23:12.627Z,21.20
2017-08-22T17:25:39.055Z,21.10
2017-08-22T17:28:05.706Z,21.00
2017-08-22T17:30:32.183Z,21.00
2017-08-22T17:32:58.621Z,20.90
2017-08-22T17:35:25.313Z,20.80
2017-08-22T17:37:51.808Z,20.80
2017-08-22T17:40:18.311Z,20.70
2017-08-22T17:42:44.749Z,20.60
2017-08-22T17:45:11.185Z,20.50
2017-08-22T17:47:37.667Z,20.40
2017-08-22T17:50:04.432Z,20.30
2017-08-22T17:52:31.580Z,20.30
2017-08-22T17:54:58.721Z,20.20
2017-08-22T17:57:25.529Z,20.20
2017-08-22T17:59:51.973Z,20.10
2017-08-22T18:02:18.525Z,20.10
2017-08-22T18:04:44.959Z,20.00
2017-08-22T18:07:11.378Z,19.90
2017-08-22T18:09:38.328Z,19.90
2017-08-22T18:12:05.478Z,19.80
2017-08-22T18:14:32.871Z,19.70
2017-08-22T18:17:00.275Z,19.70
2017-08-22T18:19:28.844Z,19.60
2017-08-22T18:21:55.311Z,19.60
2017-08-22T18:24:21.774Z,19.50
2017-08-22T18:26:48.564Z,19.50
2017-08-22T18:29:15.569Z,19.40
2017-08-22T18:31:42.289Z,19.30
2017-08-22T18:34:09.599Z,19.20
2017-08-22T18:36:36.040Z,19.10
2017-08-22T18:39:02.571Z,19.10
2017-08-22T18:41:28.978Z,19.00
2017-08-22T18:43:55.665Z,18.90
2017-08-22T18:46:22.116Z,18.80
2017-08-22T18:48:48.530Z,18.70
2017-08-22T18:51:14.964Z,18.60
2017-08-22T18:53:42.051Z,18.60
2017-08-22T18:56:08.530Z,18.50
2017-08-22T18:58:34.956Z,18.30
2017-08-22T19:01:01.396Z,18.20
2017-08-22T19:03:28.547Z,18.10
2017-08-22T19:05:55.491Z,18.10
2017-08-22T19:08:21.970Z,17.90
2017-08-22T19:10:48.469Z,17.80
2017-08-22T19:13:14.970Z,17.70
2017-08-22T19:15:41.516Z,17.60
2017-08-22T19:18:09.230Z,17.50
2017-08-22T19:20:35.768Z,17.40
2017-08-22T19:23:02.282Z,17.30
2017-08-22T19:25:28.833Z,17.20
2017-08-22T19:27:56.332Z,17.00
2017-08-22T19:30:22.943Z,16.90
2017-08-22T19:32:49.345Z,16.80
2017-08-22T19:35:15.759Z,16.70
2017-08-22T19:37:42.365Z,16.70
2017-08-22T19:40:09.140Z,16.60
2017-08-22T19:42:35.712Z,16.50
2017-08-22T19:45:03.470Z,16.40
2017-08-22T19:47:29.889Z,16.40
2017-08-22T19:49:57.036Z,16.30
2017-08-22T19:52:23.539Z,16.20
2017-08-22T19:54:49.989Z,16.10
2017-08-22T19:57:16.413Z,16.10
2017-08-22T19:59:42.855Z,16.00
2017-08-22T20:02:09.667Z,16.00
2017-08-22T20:04:36.145Z,15.90
2017-08-22T20:07:03.819Z,15.80
2017-08-22T20:09:30.320Z,15.80
2017-08-22T20:11:56.770Z,15.70
2017-08-22T20:14:23.264Z,15.70
2017-08-22T20:16:49.877Z,15.70
2017-08-22T20:19:16.518Z,15.60
2017-08-22T20:21:43.053Z,15.60
2017-08-22T20:24:10.046Z,15.50
2017-08-22T20:26:36.503Z,15.50
2017-08-22T20:29:03.356Z,15.40
2017-08-22T20:31:29.897Z,15.40
2017-08-22T20:33:56.399Z,15.30
2017-08-22T20:36:22.852Z,15.30
2017-08-22T20:38:49.303Z,15.30
2017-08-22T20:41:16.369Z,15.30
2017-08-22T20:43:42.804Z,15.30
2017-08-22T20:46:09.233Z,15.20
2017-08-22T20:48:35.693Z,15.20
2017-08-22T20:51:02.695Z,15.10
2017-08-22T20:53:29.408Z,15.10
2017-08-22T20:55:55.825Z,15.00
2017-08-22T20:58:22.324Z,14.90
2017-08-22T21:00:48.774Z,14.90
2017-08-22T21:03:15.850Z,14.80
2017-08-22T21:05:42.403Z,14.80
2017-08-22T21:08:08.815Z,14.80
2017-08-22T21:10:35.282Z,14.70
2017-08-22T21:13:01.733Z,14.70
2017-08-22T21:15:28.192Z,14.60
2017-08-22T21:17:54.651Z,14.50
2017-08-22T21:20:21.215Z,14.50
2017-08-22T21:22:47.675Z,14.50
2017-08-22T21:25:14.132Z,14.50
2017-08-22T21:27:40.679Z,14.50
2017-08-22T21:30:07.190Z,14.50
2017-08-22T21:32:33.636Z,14.50
2017-08-22T21:35:00.232Z,14.50
2017-08-22T21:37:27.015Z,14.40
2017-08-22T21:39:54.149Z,14.40
2017-08-22T21:42:20.614Z,14.40
2017-08-22T21:44:47.083Z,14.30
2017-08-22T21:47:14.144Z,14.30
2017-08-22T21:49:40.587Z,14.30
2017-08-22T21:52:07.032Z,14.20
2017-08-22T21:54:33.519Z,14.20
2017-08-22T21:57:00.004Z,14.20
2017-08-22T21:59:26.463Z,14.10
2017-08-22T22:01:52.890Z,14.10
2017-08-22T22:04:19.326Z,14.10
2017-08-22T22:06:45.779Z,14.00
2017-08-22T22:09:12.363Z,14.00
2017-08-22T22:11:38.903Z,13.90
2017-08-22T22:14:05.519Z,13.90
2017-08-22T22:16:32.065Z,13.90
2017-08-22T22:18:58.506Z,13.80
2017-08-22T22:21:24.988Z,13.80
2017-08-22T22:23:51.432Z,13.70
2017-08-22T22:26:17.879Z,13.70
2017-08-22T22:28:44.324Z,13.60
2017-08-22T22:31:11.138Z,13.60
2017-08-22T22:33:37.544Z,13.50
2017-08-22T22:36:04.291Z,13.50
2017-08-22T22:38:30.769Z,13.40
2017-08-22T22:40:57.344Z,13.40
2017-08-22T22:43:23.808Z,13.40
2017-08-22T22:45:50.234Z,13.40
2017-08-22T22:48:17.025Z,13.40
2017-08-22T22:50:43.687Z,13.30
2017-08-22T22:53:10.112Z,13.30
2017-08-22T22:55:36.600Z,13.30
2017-08-22T22:58:02.970Z,13.20
2017-08-22T23:00:29.368Z,13.20
2017-08-22T23:02:55.733Z,13.20
2017-08-22T23:05:22.182Z,13.10
2017-08-22T23:07:48.524Z,13.20
2017-08-22T23:10:14.892Z,13.20
2017-08-22T23:12:41.279Z,13.10
2017-08-22T23:15:08.062Z,13.10
2017-08-22T23:17:34.427Z,13.10
2017-08-22T23:20:00.849Z,13.10
2017-08-22T23:22:27.712Z,13.10
2017-08-22T23:24:54.073Z,13.10
2017-08-22T23:27:20.867Z,13.00
2017-08-22T23:29:47.480Z,13.10
2017-08-22T23:32:13.925Z,13.00
2017-08-22T23:34:40.401Z,13.00
2017-08-22T23:37:07.517Z,13.00
2017-08-22T23:39:33.899Z,13.00
2017-08-22T23:42:01.269Z,12.90
2017-08-22T23:44:27.746Z,12.90
2017-08-22T23:46:54.112Z,12.90
2017-08-22T23:49:20.496Z,12.80
2017-08-22T23:51:46.873Z,12.80
2017-08-22T23:54:13.609Z,12.80
2017-08-22T23:56:39.971Z,12.80
2017-08-22T23:59:06.338Z,12.80
